Eldora, New Jersey
Current Conditions -  °F | °C
As of 12:54 AM on Sunday 26 Oct 2014 (Local Time) from KMIV Reporting Station
Clear Clear  
Wind Chill: 56°   Ceiling: Unl
Heat Index: 56°   Visibility: 10mi
Dew Point: 47°   Wind: 6mph
Humidity: 72%   Direction: 240°WSW
Pressure: 29.64"   Gusts: NA
Location:  39.2589°N, 74.8124°W
Report Text: KMIV 260454Z AUTO 24005KT 10SM CLR 13/08 A2964 RMK AO2 SLP035 T01330083 402060022
Loading
Personal Weather Stations






























Interactive Weather Map
Tropical Storm Tracking
New forecast layout! Learn more

10-Day Weather Forecast

Advertisements
Track Severe Weather on mobile